createdAt,value
2017-07-14T00:00:22.774Z,2.40
2017-07-14T00:02:51.019Z,2.30
2017-07-14T00:05:18.531Z,2.40
2017-07-14T00:07:46.103Z,2.50
2017-07-14T00:10:13.590Z,2.37
2017-07-14T00:12:41.095Z,2.70
2017-07-14T00:15:08.599Z,2.00
2017-07-14T00:17:36.073Z,2.70
2017-07-14T00:20:03.568Z,2.90
2017-07-14T00:22:31.044Z,2.60
2017-07-14T00:24:58.526Z,2.55
2017-07-14T00:27:26.014Z,3.10
2017-07-14T00:29:54.262Z,2.62
2017-07-14T00:32:21.753Z,2.47
2017-07-14T00:34:49.246Z,2.62
2017-07-14T00:37:16.762Z,2.33
2017-07-14T00:39:45.030Z,2.50
2017-07-14T00:42:12.509Z,2.40
2017-07-14T00:44:40.772Z,2.40
2017-07-14T00:47:08.278Z,2.20
2017-07-14T00:49:35.782Z,2.55
2017-07-14T00:52:03.258Z,3.12
2017-07-14T00:54:31.534Z,2.50
2017-07-14T00:57:00.080Z,2.80
2017-07-14T00:59:27.570Z,2.62
2017-07-14T01:01:55.845Z,2.22
2017-07-14T01:04:23.331Z,2.22
2017-07-14T01:06:50.835Z,2.55
2017-07-14T01:09:18.326Z,3.17
2017-07-14T01:11:46.584Z,2.55
2017-07-14T01:14:14.065Z,3.20
2017-07-14T01:16:42.351Z,2.65
2017-07-14T01:19:09.838Z,2.70
2017-07-14T01:21:37.337Z,3.25
2017-07-14T01:24:04.844Z,2.20
2017-07-14T01:26:32.377Z,2.72
2017-07-14T01:29:00.610Z,2.90
2017-07-14T01:31:28.087Z,2.53
2017-07-14T01:33:55.597Z,3.05
2017-07-14T01:36:23.074Z,2.87
2017-07-14T01:38:50.572Z,2.40
2017-07-14T01:41:18.818Z,2.60
2017-07-14T01:43:46.322Z,3.40
2017-07-14T01:46:14.598Z,3.55
2017-07-14T01:48:42.853Z,3.42
2017-07-14T01:51:10.357Z,3.20
2017-07-14T01:53:37.839Z,3.45
2017-07-14T01:56:05.344Z,3.10
2017-07-14T01:58:33.637Z,2.90
2017-07-14T02:01:01.132Z,2.78
2017-07-14T02:03:28.625Z,2.97
2017-07-14T02:05:56.115Z,3.03
2017-07-14T02:08:23.622Z,3.03
2017-07-14T02:10:51.098Z,5.20
2017-07-14T02:13:18.598Z,2.30
2017-07-14T02:15:46.098Z,3.30
2017-07-14T02:18:13.578Z,2.87
2017-07-14T02:20:41.846Z,3.40
2017-07-14T02:23:09.324Z,3.25
2017-07-14T02:25:37.599Z,3.50
2017-07-14T02:28:05.865Z,3.10
2017-07-14T02:30:34.144Z,3.30
2017-07-14T02:33:02.387Z,2.87
2017-07-14T02:35:29.864Z,3.37
2017-07-14T02:37:57.359Z,3.47
2017-07-14T02:40:24.841Z,2.62
2017-07-14T02:42:52.345Z,3.20
2017-07-14T02:45:19.815Z,2.58
2017-07-14T02:47:48.081Z,2.95
2017-07-14T02:50:16.333Z,2.78
2017-07-14T02:52:43.824Z,2.53
2017-07-14T02:55:12.083Z,2.85
2017-07-14T02:57:39.561Z,2.55
2017-07-14T03:00:07.982Z,3.20
2017-07-14T03:02:35.489Z,3.87
2017-07-14T03:05:02.964Z,2.50
2017-07-14T03:07:31.210Z,3.30
2017-07-14T03:09:58.710Z,3.37
2017-07-14T03:12:26.252Z,2.90
2017-07-14T03:14:54.521Z,3.25
2017-07-14T03:17:22.764Z,3.70
2017-07-14T03:19:50.287Z,3.00
2017-07-14T03:22:17.766Z,3.55
2017-07-14T03:24:45.262Z,2.55
2017-07-14T03:27:12.737Z,2.75
2017-07-14T03:29:40.988Z,2.72
2017-07-14T03:32:08.485Z,2.50
2017-07-14T03:34:35.978Z,2.75
2017-07-14T03:37:03.510Z,2.75
2017-07-14T03:39:31.001Z,3.60
2017-07-14T03:41:58.494Z,2.85
2017-07-14T03:44:26.034Z,2.40
2017-07-14T03:46:53.537Z,2.30
2017-07-14T03:49:21.023Z,2.72
2017-07-14T03:51:48.536Z,2.50
2017-07-14T03:54:16.805Z,3.25
2017-07-14T03:56:45.065Z,2.80
2017-07-14T03:59:12.560Z,3.03
2017-07-14T04:01:40.042Z,2.70
2017-07-14T04:04:07.537Z,2.72
2017-07-14T04:06:35.016Z,3.20
2017-07-14T04:09:03.285Z,3.05
2017-07-14T04:11:30.834Z,2.72
2017-07-14T04:13:58.314Z,3.12
2017-07-14T04:16:26.586Z,3.17
2017-07-14T04:18:54.837Z,2.00
2017-07-14T04:21:22.363Z,2.20
2017-07-14T04:23:49.854Z,1.95
2017-07-14T04:26:17.324Z,2.20
2017-07-14T04:28:44.832Z,2.95
2017-07-14T04:31:12.306Z,2.37
2017-07-14T04:33:39.794Z,2.45
2017-07-14T04:36:07.296Z,2.35
2017-07-14T04:38:34.798Z,3.00
2017-07-14T04:41:02.273Z,2.90
2017-07-14T04:43:29.762Z,2.60
2017-07-14T04:45:58.022Z,2.80
2017-07-14T04:48:26.284Z,2.45
2017-07-14T04:50:53.781Z,2.62
2017-07-14T04:53:21.266Z,2.85
2017-07-14T04:55:48.763Z,2.92
2017-07-14T04:58:16.263Z,2.65
2017-07-14T05:00:43.746Z,2.55
2017-07-14T05:03:11.216Z,2.40
2017-07-14T05:05:38.729Z,2.60
2017-07-14T05:08:06.230Z,2.72
2017-07-14T05:10:33.741Z,2.80
2017-07-14T05:13:01.232Z,2.85
2017-07-14T05:15:28.705Z,2.58
2017-07-14T05:17:56.208Z,3.25
2017-07-14T05:20:23.694Z,4.05
2017-07-14T05:22:51.194Z,2.65
2017-07-14T05:25:18.697Z,3.00
2017-07-14T05:27:46.204Z,4.10
2017-07-14T05:30:13.709Z,3.87
2017-07-14T05:32:41.216Z,3.00
2017-07-14T05:35:08.690Z,3.12
2017-07-14T05:37:36.211Z,3.12
2017-07-14T05:40:03.689Z,3.50
2017-07-14T05:42:31.229Z,3.03
2017-07-14T05:44:58.709Z,3.60
2017-07-14T05:47:26.201Z,4.00
2017-07-14T05:49:54.479Z,3.60
2017-07-14T05:52:22.722Z,2.97
2017-07-14T05:54:50.225Z,4.28
2017-07-14T05:57:18.468Z,3.20
2017-07-14T05:59:45.941Z,3.05
2017-07-14T06:02:13.436Z,3.63
2017-07-14T06:04:40.923Z,3.20
2017-07-14T06:07:08.423Z,3.42
2017-07-14T06:09:36.673Z,3.67
2017-07-14T06:12:04.157Z,2.83
2017-07-14T06:14:32.421Z,2.83
2017-07-14T06:16:59.905Z,5.20
2017-07-14T06:19:28.162Z,2.63
2017-07-14T06:21:56.404Z,3.30
2017-07-14T06:24:23.916Z,3.00
2017-07-14T06:26:52.169Z,2.37
2017-07-14T06:29:19.660Z,2.80
2017-07-14T06:31:47.161Z,2.77
2017-07-14T06:34:14.648Z,2.83
2017-07-14T06:36:42.892Z,3.20
2017-07-14T06:39:10.397Z,3.00
2017-07-14T06:41:38.633Z,2.53
2017-07-14T06:44:06.195Z,2.43
2017-07-14T06:46:33.685Z,2.63
2017-07-14T06:49:01.929Z,1.97
2017-07-14T06:51:29.418Z,2.10
2017-07-14T06:53:57.668Z,2.80
2017-07-14T06:56:25.191Z,1.90
2017-07-14T06:58:52.675Z,2.33
2017-07-14T07:01:20.153Z,1.93
2017-07-14T07:03:47.651Z,3.10
2017-07-14T07:06:15.145Z,2.63
2017-07-14T07:08:42.645Z,1.70
2017-07-14T07:11:10.889Z,1.93
2017-07-14T07:13:38.368Z,2.03
2017-07-14T07:16:06.630Z,3.03
2017-07-14T07:18:34.105Z,3.40
2017-07-14T07:21:02.370Z,3.27
2017-07-14T07:23:29.873Z,2.60
2017-07-14T07:25:57.350Z,2.70
2017-07-14T07:28:24.848Z,2.17
2017-07-14T07:30:52.330Z,2.10
2017-07-14T07:33:20.637Z,2.37
2017-07-14T07:35:48.117Z,2.23
2017-07-14T07:38:15.655Z,2.50
2017-07-14T07:40:43.157Z,2.80
2017-07-14T07:43:10.637Z,2.97
2017-07-14T07:45:38.915Z,2.80
2017-07-14T07:48:12.785Z,2.10
2017-07-14T07:50:40.292Z,2.60
2017-07-14T07:53:07.762Z,2.40
2017-07-14T07:55:35.294Z,3.10
2017-07-14T07:58:03.545Z,3.67
2017-07-14T08:00:31.045Z,2.83
2017-07-14T08:03:14.233Z,2.90
2017-07-14T08:05:41.715Z,3.63
2017-07-14T08:08:09.983Z,3.27
2017-07-14T08:10:38.236Z,2.40
2017-07-14T08:13:05.734Z,3.20
2017-07-14T08:15:33.964Z,2.47
2017-07-14T08:18:01.445Z,2.80
2017-07-14T08:20:28.939Z,3.20
2017-07-14T08:22:56.424Z,2.40
2017-07-14T08:25:23.911Z,3.40
2017-07-14T08:27:51.398Z,2.90
2017-07-14T08:30:19.663Z,3.33
2017-07-14T08:32:47.914Z,2.83
2017-07-14T08:35:15.798Z,2.70
2017-07-14T08:37:44.076Z,2.60
2017-07-14T08:40:12.328Z,3.43
2017-07-14T08:42:39.829Z,3.53
2017-07-14T08:45:07.331Z,3.40
2017-07-14T08:47:34.820Z,3.40
2017-07-14T08:50:02.301Z,3.97
2017-07-14T08:52:30.573Z,3.60
2017-07-14T08:54:58.809Z,2.93
2017-07-14T08:57:26.331Z,2.60
2017-07-14T08:59:53.827Z,3.13
2017-07-14T09:02:21.306Z,3.13
2017-07-14T09:04:48.811Z,3.50
2017-07-14T09:07:16.290Z,4.00
2017-07-14T09:09:43.783Z,2.20
2017-07-14T09:12:12.026Z,1.70
2017-07-14T09:14:39.496Z,2.77
2017-07-14T09:17:06.984Z,1.97
2017-07-14T09:19:35.217Z,2.13
2017-07-14T09:22:02.715Z,1.83
2017-07-14T09:24:30.200Z,1.83
2017-07-14T09:26:57.692Z,1.87
2017-07-14T09:29:25.168Z,1.87
2017-07-14T09:31:52.645Z,2.33
2017-07-14T09:34:20.908Z,2.30
2017-07-14T09:36:48.384Z,11.17
2017-07-14T09:39:16.645Z,2.70
2017-07-14T09:41:44.121Z,3.00
2017-07-14T09:44:12.386Z,3.10
2017-07-14T09:46:39.868Z,1.97
2017-07-14T09:49:07.361Z,2.47
2017-07-14T09:51:34.841Z,2.37
2017-07-14T09:54:02.337Z,2.30
2017-07-14T09:56:30.572Z,2.37
2017-07-14T09:58:58.075Z,2.40
2017-07-14T10:01:26.317Z,2.00
2017-07-14T10:03:53.797Z,2.13
2017-07-14T10:06:22.056Z,2.40
2017-07-14T10:08:49.563Z,2.00
2017-07-14T10:11:17.078Z,2.20
2017-07-14T10:13:44.548Z,2.13
2017-07-14T10:16:12.800Z,2.23
2017-07-14T10:18:40.313Z,2.17
2017-07-14T10:21:07.793Z,1.80
2017-07-14T10:23:35.285Z,2.07
2017-07-14T10:26:02.749Z,2.07
2017-07-14T10:28:31.034Z,2.00
2017-07-14T10:30:59.276Z,1.57
2017-07-14T10:33:26.749Z,1.90
2017-07-14T10:35:54.249Z,2.00
2017-07-14T10:38:21.728Z,2.27
2017-07-14T10:40:49.229Z,1.70
2017-07-14T10:43:16.709Z,1.83
2017-07-14T10:45:44.984Z,1.70
2017-07-14T10:48:13.226Z,1.70
2017-07-14T10:50:40.751Z,2.10
2017-07-14T10:53:08.237Z,1.80
2017-07-14T10:55:35.731Z,1.60
2017-07-14T10:58:03.989Z,1.50
2017-07-14T11:00:31.474Z,1.30
2017-07-14T11:02:59.727Z,1.50
2017-07-14T11:05:27.225Z,1.40
2017-07-14T11:07:54.717Z,1.40
2017-07-14T11:10:22.254Z,1.20
2017-07-14T11:12:49.725Z,2.83
2017-07-14T11:15:17.193Z,1.60
2017-07-14T11:17:44.681Z,1.70
2017-07-14T11:20:12.154Z,1.60
2017-07-14T11:22:40.412Z,1.60
2017-07-14T11:25:08.668Z,1.33
2017-07-14T11:27:36.156Z,1.50
2017-07-14T11:30:04.419Z,1.60
2017-07-14T11:32:32.110Z,1.47
2017-07-14T11:35:00.412Z,1.93
2017-07-14T11:37:27.901Z,1.70
2017-07-14T11:39:55.405Z,1.97
2017-07-14T11:42:23.654Z,1.60
2017-07-14T11:44:51.137Z,1.70
2017-07-14T11:47:19.406Z,1.60
2017-07-14T11:49:47.644Z,2.00
2017-07-14T11:52:15.140Z,1.90
2017-07-14T11:54:43.383Z,1.60
2017-07-14T11:57:10.889Z,1.60
2017-07-14T11:59:38.364Z,1.60
2017-07-14T12:02:05.843Z,1.70
2017-07-14T12:04:33.337Z,1.53
2017-07-14T12:07:00.841Z,1.70
2017-07-14T12:09:28.339Z,1.90
2017-07-14T12:11:55.856Z,1.80
2017-07-14T12:14:23.341Z,1.77
2017-07-14T12:16:50.878Z,1.90
2017-07-14T12:19:18.373Z,1.90
2017-07-14T12:21:45.891Z,1.77
2017-07-14T12:24:16.260Z,2.20
2017-07-14T12:26:44.704Z,1.70
2017-07-14T12:29:12.189Z,2.13
2017-07-14T12:31:39.677Z,1.67
2017-07-14T12:34:07.920Z,1.80
2017-07-14T12:36:35.437Z,1.47
2017-07-14T12:39:02.929Z,1.33
2017-07-14T12:41:30.408Z,1.60
2017-07-14T12:43:57.885Z,1.40
2017-07-14T12:46:26.142Z,1.60
2017-07-14T12:48:53.619Z,1.50
2017-07-14T12:51:22.231Z,1.67
2017-07-14T12:53:49.714Z,1.77
2017-07-14T12:56:17.190Z,1.60
2017-07-14T12:58:44.780Z,1.57
2017-07-14T13:01:13.017Z,1.60
2017-07-14T13:03:40.493Z,1.40
2017-07-14T13:06:07.986Z,1.47
2017-07-14T13:08:35.464Z,1.50
2017-07-14T13:11:02.958Z,1.40
2017-07-14T13:13:30.432Z,1.53
2017-07-14T13:15:57.939Z,1.57
2017-07-14T13:18:25.428Z,2.37
2017-07-14T13:20:52.919Z,1.30
2017-07-14T13:23:21.181Z,2.03
2017-07-14T13:25:48.684Z,2.00
2017-07-14T13:28:16.165Z,2.60
2017-07-14T13:30:43.633Z,2.17
2017-07-14T13:33:11.122Z,2.10
2017-07-14T13:35:39.420Z,1.90
2017-07-14T13:38:06.933Z,1.70
2017-07-14T13:40:34.408Z,1.83
2017-07-14T13:43:02.026Z,1.60
2017-07-14T13:45:29.506Z,1.30
2017-07-14T13:47:56.996Z,1.10
2017-07-14T13:50:25.258Z,1.47
2017-07-14T13:52:52.749Z,1.40
2017-07-14T13:55:20.261Z,1.70
2017-07-14T13:57:47.763Z,1.30
2017-07-14T14:00:15.274Z,1.50
2017-07-14T14:02:42.811Z,1.50
2017-07-14T14:05:10.301Z,1.50
2017-07-14T14:07:37.785Z,1.80
2017-07-14T14:10:06.032Z,1.80
2017-07-14T14:12:33.527Z,1.90
2017-07-14T14:15:01.757Z,2.40
2017-07-14T14:17:29.249Z,2.83
2017-07-14T14:19:57.525Z,3.10
2017-07-14T14:22:25.784Z,2.10
2017-07-14T14:24:53.295Z,2.30
2017-07-14T14:27:20.865Z,2.60
2017-07-14T14:29:48.354Z,2.07
2017-07-14T14:32:15.883Z,2.30
2017-07-14T14:34:43.353Z,1.97
2017-07-14T14:37:10.848Z,2.13
2017-07-14T14:39:38.327Z,1.80
2017-07-14T14:42:06.561Z,1.63
2017-07-14T14:44:34.048Z,1.80
2017-07-14T14:47:02.288Z,2.00
2017-07-14T14:49:29.784Z,2.13
2017-07-14T14:51:58.024Z,2.40
2017-07-14T14:54:25.539Z,2.20
2017-07-14T14:56:53.012Z,2.23
2017-07-14T14:59:20.577Z,2.27
2017-07-14T15:01:48.058Z,2.03
2017-07-14T15:04:15.564Z,2.50
2017-07-14T15:06:43.041Z,2.20
2017-07-14T15:09:10.544Z,2.30
2017-07-14T15:11:38.009Z,2.13
2017-07-14T15:14:05.489Z,2.43
2017-07-14T15:16:33.008Z,2.37
2017-07-14T15:19:00.504Z,2.73
2017-07-14T15:21:28.749Z,2.17
2017-07-14T15:23:56.216Z,2.30
2017-07-14T15:26:23.706Z,2.80
2017-07-14T15:28:52.115Z,2.87
2017-07-14T15:31:19.584Z,2.47
2017-07-14T15:33:47.077Z,2.33
2017-07-14T15:36:14.574Z,2.80
2017-07-14T15:38:42.069Z,3.23
2017-07-14T15:41:09.532Z,2.73
2017-07-14T15:43:37.033Z,2.60
2017-07-14T15:46:05.292Z,3.03
2017-07-14T15:48:32.798Z,2.80
2017-07-14T15:51:00.294Z,3.03
2017-07-14T15:53:27.798Z,3.17
2017-07-14T15:55:55.296Z,2.40
2017-07-14T15:58:22.768Z,2.67
2017-07-14T16:00:50.276Z,2.87
2017-07-14T16:03:17.785Z,2.57
2017-07-14T16:05:45.270Z,2.97
2017-07-14T16:08:13.510Z,2.80
2017-07-14T16:10:41.093Z,2.33
2017-07-14T16:13:08.597Z,2.53
2017-07-14T16:15:36.095Z,2.53
2017-07-14T16:18:03.571Z,2.80
2017-07-14T16:20:31.077Z,1.70
2017-07-14T16:22:58.561Z,1.73
2017-07-14T16:25:26.068Z,1.27
2017-07-14T16:27:53.570Z,1.73
2017-07-14T16:30:21.067Z,1.40
2017-07-14T16:32:49.314Z,1.60
2017-07-14T16:35:16.805Z,1.37
2017-07-14T16:37:45.053Z,1.30
2017-07-14T16:40:12.586Z,1.20
2017-07-14T16:42:40.052Z,1.40
2017-07-14T16:45:07.527Z,1.47
2017-07-14T16:47:35.010Z,1.27
2017-07-14T16:50:03.241Z,1.50
2017-07-14T16:52:30.743Z,1.03
2017-07-14T16:54:58.210Z,1.23
2017-07-14T16:57:26.448Z,1.23
2017-07-14T16:59:53.941Z,1.30
2017-07-14T17:02:22.190Z,1.50
2017-07-14T17:04:49.699Z,1.40
2017-07-14T17:07:17.187Z,1.20
2017-07-14T17:09:44.687Z,1.30
2017-07-14T17:12:12.933Z,1.20
2017-07-14T17:14:40.422Z,1.87
2017-07-14T17:17:08.685Z,1.47
2017-07-14T17:19:36.181Z,1.40
2017-07-14T17:22:03.678Z,1.53
2017-07-14T17:24:31.188Z,1.53
2017-07-14T17:26:58.689Z,1.50
2017-07-14T17:29:26.166Z,1.60
2017-07-14T17:31:53.660Z,1.70
2017-07-14T17:34:21.925Z,1.63
2017-07-14T17:36:50.174Z,1.63
2017-07-14T17:39:17.691Z,1.83
2017-07-14T17:41:45.178Z,1.50
2017-07-14T17:44:12.677Z,2.63
2017-07-14T17:46:40.946Z,1.90
2017-07-14T17:49:09.197Z,1.67
2017-07-14T17:51:36.707Z,1.33
2017-07-14T17:54:04.247Z,1.50
2017-07-14T17:56:32.517Z,1.50
2017-07-14T17:59:00.789Z,2.00
2017-07-14T18:01:28.290Z,2.03
2017-07-14T18:03:55.776Z,1.57
2017-07-14T18:06:23.253Z,1.90
2017-07-14T18:08:50.762Z,2.20
2017-07-14T18:11:18.261Z,1.40
2017-07-14T18:13:45.744Z,2.27
2017-07-14T18:16:14.014Z,1.67
2017-07-14T18:18:41.510Z,1.50
2017-07-14T18:21:09.036Z,1.80
2017-07-14T18:23:36.645Z,1.90
2017-07-14T18:26:04.145Z,2.37
2017-07-14T18:28:31.624Z,2.03
2017-07-14T18:30:59.886Z,1.43
2017-07-14T18:33:27.367Z,2.20
2017-07-14T18:35:54.869Z,1.67
2017-07-14T18:38:22.348Z,1.53
2017-07-14T18:40:49.858Z,1.83
2017-07-14T18:43:17.346Z,1.70
2017-07-14T18:45:44.831Z,1.90
2017-07-14T18:48:12.334Z,1.60
2017-07-14T18:50:39.810Z,1.60
2017-07-14T18:53:07.363Z,2.17
2017-07-14T18:55:34.919Z,1.80
2017-07-14T18:58:02.485Z,1.43
2017-07-14T19:00:29.982Z,1.77
2017-07-14T19:02:57.448Z,1.77
2017-07-14T19:05:24.948Z,1.90
2017-07-14T19:07:52.449Z,1.90
2017-07-14T19:10:19.937Z,1.77
2017-07-14T19:12:48.229Z,1.70
2017-07-14T19:15:15.732Z,1.60
2017-07-14T19:17:43.229Z,1.50
2017-07-14T19:20:11.509Z,1.73
2017-07-14T19:22:39.814Z,1.50
2017-07-14T19:25:07.312Z,1.53
2017-07-14T19:27:34.784Z,1.60
2017-07-14T19:30:02.301Z,2.10
2017-07-14T19:32:29.777Z,1.83
2017-07-14T19:34:57.281Z,2.13
2017-07-14T19:37:25.530Z,1.67
2017-07-14T19:39:53.025Z,2.23
2017-07-14T19:42:20.534Z,1.70
2017-07-14T19:44:48.074Z,1.83
2017-07-14T19:47:15.569Z,1.80
2017-07-14T19:49:43.827Z,1.80
2017-07-14T19:52:11.375Z,1.40
2017-07-14T19:54:38.865Z,1.93
2017-07-14T19:57:06.392Z,1.60
2017-07-14T19:59:33.888Z,1.77
2017-07-14T20:02:02.145Z,2.30
2017-07-14T20:04:29.669Z,1.70
2017-07-14T20:06:57.167Z,1.53
2017-07-14T20:09:24.649Z,1.90
2017-07-14T20:11:52.926Z,2.00
2017-07-14T20:14:21.221Z,1.63
2017-07-14T20:16:48.722Z,1.73
2017-07-14T20:19:16.197Z,1.70
2017-07-14T20:21:43.718Z,1.60
2017-07-14T20:24:11.201Z,2.00
2017-07-14T20:26:38.693Z,1.60
2017-07-14T20:29:06.962Z,1.90
2017-07-14T20:31:34.441Z,1.47
2017-07-14T20:34:01.940Z,2.00
2017-07-14T20:36:29.431Z,1.50
2017-07-14T20:38:56.954Z,1.70
2017-07-14T20:41:24.446Z,1.50
2017-07-14T20:43:51.943Z,1.83
2017-07-14T20:46:19.414Z,1.77
2017-07-14T20:48:46.928Z,2.13
2017-07-14T20:51:15.169Z,1.60
2017-07-14T20:53:42.675Z,1.70
2017-07-14T20:56:11.881Z,2.20
2017-07-14T20:58:39.382Z,1.60
2017-07-14T21:01:06.862Z,1.73
2017-07-14T21:03:34.366Z,1.53
2017-07-14T21:06:02.723Z,1.60
2017-07-14T21:08:30.210Z,1.77
2017-07-14T21:10:57.701Z,1.70
2017-07-14T21:13:25.178Z,1.70
2017-07-14T21:15:52.665Z,1.83
2017-07-14T21:18:20.158Z,1.83
2017-07-14T21:20:47.701Z,1.63
2017-07-14T21:23:15.172Z,1.60
2017-07-14T21:25:42.675Z,1.50
2017-07-14T21:28:10.160Z,1.83
2017-07-14T21:30:37.648Z,1.60
2017-07-14T21:33:05.153Z,1.80
2017-07-14T21:35:32.630Z,1.63
2017-07-14T21:38:00.920Z,2.00
2017-07-14T21:40:28.405Z,1.80
2017-07-14T21:42:55.987Z,1.80
2017-07-14T21:45:23.475Z,2.03
2017-07-14T21:47:51.732Z,1.83
2017-07-14T21:50:19.232Z,1.80
2017-07-14T21:52:46.758Z,2.33
2017-07-14T21:55:15.010Z,1.83
2017-07-14T21:57:42.514Z,2.33
2017-07-14T22:00:10.004Z,1.80
2017-07-14T22:02:37.529Z,1.87
2017-07-14T22:05:05.786Z,1.83
2017-07-14T22:07:33.256Z,1.93
2017-07-14T22:10:01.547Z,1.87
2017-07-14T22:12:29.138Z,2.10
2017-07-14T22:14:56.695Z,2.20
2017-07-14T22:17:24.193Z,1.90
2017-07-14T22:19:51.816Z,2.83
2017-07-14T22:22:19.324Z,2.35
2017-07-14T22:24:46.804Z,2.40
2017-07-14T22:27:14.299Z,2.43
2017-07-14T22:29:41.782Z,2.57
2017-07-14T22:32:09.309Z,2.65
2017-07-14T22:34:36.786Z,2.33
2017-07-14T22:37:04.284Z,3.07
2017-07-14T22:39:31.790Z,2.60
2017-07-14T22:41:59.285Z,2.80
2017-07-14T22:44:26.801Z,2.83
2017-07-14T22:46:54.285Z,2.17
2017-07-14T22:49:21.775Z,3.53
2017-07-14T22:51:50.049Z,2.70
2017-07-14T22:54:18.324Z,3.62
2017-07-14T22:56:46.573Z,3.80
2017-07-14T22:59:14.090Z,3.87
2017-07-14T23:01:42.494Z,3.67
2017-07-14T23:04:09.977Z,4.65
2017-07-14T23:06:37.482Z,5.43
2017-07-14T23:09:04.973Z,5.80
2017-07-14T23:11:32.463Z,7.10
2017-07-14T23:13:59.958Z,6.65
2017-07-14T23:16:27.438Z,7.70
2017-07-14T23:18:54.947Z,9.02
2017-07-14T23:21:23.205Z,9.43
2017-07-14T23:23:50.702Z,10.30
2017-07-14T23:26:18.207Z,10.55
2017-07-14T23:28:45.697Z,11.20
2017-07-14T23:31:13.966Z,10.65
2017-07-14T23:33:42.246Z,13.52
2017-07-14T23:36:10.503Z,13.85
2017-07-14T23:38:38.002Z,12.82
2017-07-14T23:41:05.514Z,12.32
2017-07-14T23:43:33.014Z,12.68
2017-07-14T23:46:00.512Z,14.90
2017-07-14T23:48:28.017Z,15.00
2017-07-14T23:50:56.264Z,13.00
2017-07-14T23:53:23.779Z,14.30
2017-07-14T23:55:51.295Z,14.95
2017-07-14T23:58:18.800Z,13.90
